Sherrills Ford, North Carolina
Current Conditions -  °F | °C
As of 8:55 AM on Monday 24 Nov 2014 (Local Time) from KIPJ Reporting Station
Overcast Overcast  
Wind Chill: 61°   Ceiling: 1800
Heat Index: 61°   Visibility: 10mi
Dew Point: 56°   Wind: 8mph
Humidity: 83%   Direction: 230°SW
Pressure: 29.78"   Gusts: NA
Location:  35.58°N, 80.99°W
Report Text: KIPJ 241355Z AUTO 23007KT 10SM BKN018 BKN025 OVC033 16/13 A2978 RMK AO2 T01610132
Loading
Personal Weather Stations






























Interactive Weather Map New forecast layout! Learn more

10-Day Weather Forecast

Advertisements
Track Severe Weather on mobile